GTOMP FPPR-FGSL
Flight info
| Callsign | GTOMP |
|---|---|
| Flight time | 1h 9m |
| Altitude | 2500 |
| Route | DIRECT |
| Aircraft | BE35/L-V/N |
Departure
| Time | 2026-05-04 18:08 |
|---|---|
| Airport | Principe Airport (FPPR) |
Arrival
| Time | 2026-05-04 19:18 |
|---|---|
| Airport | Malabo International Airport (FGSL) |
| Time | Latitude | Longitude | Altitude | Speed | Heading |
|---|---|---|---|---|---|
| 2026-05-04 17:48 | 1.66502 | 7.41244 | 604 ft | 0 kts | 325° |
| 2026-05-04 17:49 | 1.66501 | 7.41231 | 604 ft | 0 kts | 325° |
| 2026-05-04 18:03 | 1.66514 | 7.41204 | 604 ft | 3 kts | 227° |
| 2026-05-04 18:03 | 1.66495 | 7.41194 | 604 ft | 0 kts | 224° |
| 2026-05-04 18:03 | 1.66491 | 7.41186 | 604 ft | 0 kts | 249° |
| 2026-05-04 18:05 | 1.66484 | 7.41164 | 604 ft | 0 kts | 258° |
| 2026-05-04 18:06 | 1.66473 | 7.41124 | 604 ft | 16 kts | 237° |
| 2026-05-04 18:06 | 1.66429 | 7.41100 | 604 ft | 0 kts | 179° |
| 2026-05-04 18:07 | 1.66373 | 7.41102 | 605 ft | 29 kts | 180° |
| 2026-05-04 18:08 | 1.65901 | 7.41094 | 637 ft | 94 kts | 180° |
| 2026-05-04 18:08 | 1.65184 | 7.41101 | 849 ft | 110 kts | 177° |
| 2026-05-04 18:08 | 1.64361 | 7.41072 | 1072 ft | 125 kts | 179° |
| 2026-05-04 18:08 | 1.63572 | 7.41462 | 1267 ft | 137 kts | 125° |
| 2026-05-04 18:09 | 1.64240 | 7.43175 | 1554 ft | 152 kts | 42° |
| 2026-05-04 18:09 | 1.65825 | 7.44701 | 1807 ft | 162 kts | 47° |
| 2026-05-04 18:10 | 1.66685 | 7.45438 | 1919 ft | 165 kts | 32° |
| 2026-05-04 18:10 | 1.67661 | 7.46054 | 2017 ft | 165 kts | 35° |
| 2026-05-04 18:10 | 1.68548 | 7.46812 | 1988 ft | 167 kts | 45° |
| 2026-05-04 18:10 | 1.69443 | 7.47553 | 1979 ft | 168 kts | 31° |
| 2026-05-04 18:11 | 1.70531 | 7.48065 | 1800 ft | 175 kts | 23° |
| 2026-05-04 18:11 | 1.71562 | 7.48674 | 1880 ft | 166 kts | 34° |
| 2026-05-04 18:11 | 1.72480 | 7.49325 | 1960 ft | 161 kts | 38° |
| 2026-05-04 18:11 | 1.73356 | 7.50054 | 1940 ft | 163 kts | 40° |
| 2026-05-04 18:12 | 1.74213 | 7.50800 | 1921 ft | 163 kts | 40° |
| 2026-05-04 18:12 | 1.75029 | 7.51586 | 1973 ft | 160 kts | 45° |
| 2026-05-04 18:12 | 1.75910 | 7.52287 | 1943 ft | 162 kts | 29° |
| 2026-05-04 18:12 | 1.76877 | 7.52825 | 2011 ft | 158 kts | 29° |
| 2026-05-04 18:13 | 1.77832 | 7.53409 | 2015 ft | 159 kts | 29° |
| 2026-05-04 18:13 | 1.78819 | 7.53940 | 1993 ft | 162 kts | 27° |
| 2026-05-04 18:13 | 1.80773 | 7.55073 | 1962 ft | 164 kts | 32° |
| 2026-05-04 18:14 | 1.81721 | 7.55715 | 1971 ft | 162 kts | 35° |
| 2026-05-04 18:14 | 1.82621 | 7.56388 | 1963 ft | 163 kts | 38° |
| 2026-05-04 18:14 | 1.83519 | 7.57083 | 1971 ft | 162 kts | 33° |
| 2026-05-04 18:15 | 1.85430 | 7.58213 | 2043 ft | 159 kts | 26° |
| 2026-05-04 18:15 | 1.87556 | 7.58877 | 2065 ft | 159 kts | 20° |
| 2026-05-04 18:15 | 1.88554 | 7.59385 | 2079 ft | 160 kts | 27° |
| 2026-05-04 18:16 | 1.89535 | 7.59903 | 2075 ft | 161 kts | 27° |
| 2026-05-04 18:16 | 1.90532 | 7.60432 | 2075 ft | 161 kts | 27° |
| 2026-05-04 18:16 | 1.91536 | 7.60964 | 2075 ft | 161 kts | 27° |
| 2026-05-04 18:17 | 1.93530 | 7.62022 | 2074 ft | 162 kts | 27° |
| 2026-05-04 18:17 | 1.94518 | 7.62546 | 2074 ft | 162 kts | 27° |
| 2026-05-04 18:17 | 1.96524 | 7.63611 | 2074 ft | 162 kts | 27° |
| 2026-05-04 18:18 | 1.97519 | 7.64139 | 2074 ft | 162 kts | 27° |
| 2026-05-04 18:18 | 1.98521 | 7.64672 | 2074 ft | 162 kts | 27° |
| 2026-05-04 18:18 | 1.99515 | 7.65199 | 2074 ft | 162 kts | 27° |
| 2026-05-04 18:18 | 2.00519 | 7.65733 | 2074 ft | 162 kts | 27° |
| 2026-05-04 18:19 | 2.02521 | 7.66796 | 2074 ft | 162 kts | 27° |
| 2026-05-04 18:19 | 2.03519 | 7.67326 | 2074 ft | 162 kts | 27° |
| 2026-05-04 18:19 | 2.04521 | 7.67858 | 2074 ft | 162 kts | 27° |
| 2026-05-04 18:20 | 2.05515 | 7.68387 | 2074 ft | 162 kts | 27° |
| 2026-05-04 18:20 | 2.06521 | 7.68922 | 2074 ft | 162 kts | 27° |
| 2026-05-04 18:20 | 2.07513 | 7.69449 | 2074 ft | 162 kts | 27° |
| 2026-05-04 18:20 | 2.08521 | 7.69985 | 2074 ft | 162 kts | 27° |
| 2026-05-04 18:21 | 2.09514 | 7.70513 | 2074 ft | 162 kts | 27° |
| 2026-05-04 18:21 | 2.10520 | 7.71048 | 2074 ft | 162 kts | 27° |
| 2026-05-04 18:21 | 2.11523 | 7.71581 | 2074 ft | 162 kts | 27° |
| 2026-05-04 18:21 | 2.12511 | 7.72107 | 2074 ft | 162 kts | 27° |
| 2026-05-04 18:22 | 2.13522 | 7.72646 | 2074 ft | 162 kts | 27° |
| 2026-05-04 18:22 | 2.14514 | 7.73173 | 2074 ft | 162 kts | 27° |
| 2026-05-04 18:22 | 2.15517 | 7.73707 | 2074 ft | 162 kts | 27° |
| 2026-05-04 18:22 | 2.16510 | 7.74235 | 2074 ft | 162 kts | 27° |
| 2026-05-04 18:23 | 2.17514 | 7.74770 | 2074 ft | 162 kts | 27° |
| 2026-05-04 18:23 | 2.18511 | 7.75301 | 2074 ft | 162 kts | 27° |
| 2026-05-04 18:23 | 2.19515 | 7.75835 | 2074 ft | 162 kts | 27° |
| 2026-05-04 18:23 | 2.20506 | 7.76364 | 2074 ft | 162 kts | 27° |
| 2026-05-04 18:24 | 2.21508 | 7.76897 | 2074 ft | 162 kts | 27° |
| 2026-05-04 18:24 | 2.22509 | 7.77431 | 2074 ft | 162 kts | 27° |
| 2026-05-04 18:24 | 2.23511 | 7.77964 | 2074 ft | 162 kts | 27° |
| 2026-05-04 18:24 | 2.24507 | 7.78495 | 2074 ft | 162 kts | 27° |
| 2026-05-04 18:25 | 2.25510 | 7.79030 | 2074 ft | 162 kts | 27° |
| 2026-05-04 18:25 | 2.26505 | 7.79561 | 2074 ft | 162 kts | 27° |
| 2026-05-04 18:25 | 2.27509 | 7.80096 | 2074 ft | 162 kts | 28° |
| 2026-05-04 18:25 | 2.28515 | 7.80633 | 2074 ft | 162 kts | 27° |
| 2026-05-04 18:26 | 2.29508 | 7.81163 | 2074 ft | 162 kts | 27° |
| 2026-05-04 18:26 | 2.30512 | 7.81699 | 2074 ft | 162 kts | 27° |
| 2026-05-04 18:26 | 2.31519 | 7.82236 | 2074 ft | 162 kts | 27° |
| 2026-05-04 18:26 | 2.32522 | 7.82771 | 2074 ft | 162 kts | 27° |
| 2026-05-04 18:27 | 2.33519 | 7.83303 | 2074 ft | 162 kts | 27° |
| 2026-05-04 18:27 | 2.34524 | 7.83839 | 2074 ft | 162 kts | 27° |
| 2026-05-04 18:27 | 2.35519 | 7.84370 | 2074 ft | 162 kts | 27° |
| 2026-05-04 18:27 | 2.36522 | 7.84906 | 2074 ft | 162 kts | 27° |
| 2026-05-04 18:28 | 2.37490 | 7.85491 | 2073 ft | 162 kts | 33° |
| 2026-05-04 18:28 | 2.38429 | 7.86123 | 2074 ft | 162 kts | 33° |
| 2026-05-04 18:28 | 2.39369 | 7.86759 | 2074 ft | 162 kts | 33° |
| 2026-05-04 18:28 | 2.40313 | 7.87398 | 2074 ft | 162 kts | 33° |
| 2026-05-04 18:29 | 2.41244 | 7.88028 | 2074 ft | 162 kts | 34° |
| 2026-05-04 18:29 | 2.42186 | 7.88666 | 2074 ft | 162 kts | 34° |
| 2026-05-04 18:29 | 2.43117 | 7.89296 | 2074 ft | 162 kts | 34° |
| 2026-05-04 18:29 | 2.44063 | 7.89937 | 2074 ft | 162 kts | 34° |
| 2026-05-04 18:30 | 2.45939 | 7.91207 | 2074 ft | 162 kts | 34° |
| 2026-05-04 18:30 | 2.46874 | 7.91841 | 2074 ft | 162 kts | 34° |
| 2026-05-04 18:30 | 2.47818 | 7.92480 | 2074 ft | 162 kts | 34° |
| 2026-05-04 18:31 | 2.48755 | 7.93115 | 2074 ft | 162 kts | 34° |
| 2026-05-04 18:31 | 2.49683 | 7.93744 | 2074 ft | 162 kts | 34° |
| 2026-05-04 18:31 | 2.50634 | 7.94388 | 2074 ft | 162 kts | 34° |
| 2026-05-04 18:31 | 2.51565 | 7.95020 | 2074 ft | 162 kts | 34° |
| 2026-05-04 18:32 | 2.52511 | 7.95661 | 2074 ft | 162 kts | 34° |
| 2026-05-04 18:32 | 2.53444 | 7.96293 | 2074 ft | 162 kts | 34° |
| 2026-05-04 18:32 | 2.54377 | 7.96926 | 2074 ft | 162 kts | 34° |
| 2026-05-04 18:32 | 2.55326 | 7.97570 | 2074 ft | 162 kts | 34° |
| 2026-05-04 18:33 | 2.56262 | 7.98204 | 2074 ft | 162 kts | 34° |
| 2026-05-04 18:33 | 2.57195 | 7.98837 | 2074 ft | 162 kts | 34° |
| 2026-05-04 18:33 | 2.58134 | 7.99474 | 2074 ft | 162 kts | 34° |
| 2026-05-04 18:33 | 2.59081 | 8.00117 | 2074 ft | 162 kts | 34° |
| 2026-05-04 18:34 | 2.60012 | 8.00749 | 2074 ft | 162 kts | 34° |
| 2026-05-04 18:34 | 2.60955 | 8.01389 | 2074 ft | 162 kts | 34° |
| 2026-05-04 18:34 | 2.61897 | 8.02028 | 2074 ft | 162 kts | 34° |
| 2026-05-04 18:34 | 2.62829 | 8.02661 | 2074 ft | 162 kts | 34° |
| 2026-05-04 18:35 | 2.63763 | 8.03295 | 2074 ft | 162 kts | 34° |
| 2026-05-04 18:35 | 2.64706 | 8.03935 | 2074 ft | 162 kts | 34° |
| 2026-05-04 18:35 | 2.65650 | 8.04576 | 2074 ft | 162 kts | 34° |
| 2026-05-04 18:35 | 2.66583 | 8.05210 | 2074 ft | 162 kts | 34° |
| 2026-05-04 18:36 | 2.67526 | 8.05851 | 2074 ft | 162 kts | 34° |
| 2026-05-04 18:36 | 2.68463 | 8.06487 | 2074 ft | 162 kts | 34° |
| 2026-05-04 18:36 | 2.69397 | 8.07122 | 2074 ft | 162 kts | 34° |
| 2026-05-04 18:36 | 2.70340 | 8.07763 | 2074 ft | 162 kts | 34° |
| 2026-05-04 18:37 | 2.71277 | 8.08399 | 2074 ft | 162 kts | 34° |
| 2026-05-04 18:37 | 2.72221 | 8.09041 | 2074 ft | 162 kts | 34° |
| 2026-05-04 18:37 | 2.73152 | 8.09674 | 2074 ft | 162 kts | 34° |
| 2026-05-04 18:37 | 2.74096 | 8.10316 | 2074 ft | 162 kts | 34° |
| 2026-05-04 18:38 | 2.75034 | 8.10954 | 2074 ft | 162 kts | 34° |
| 2026-05-04 18:38 | 2.75976 | 8.11594 | 2074 ft | 162 kts | 34° |
| 2026-05-04 18:38 | 2.76905 | 8.12226 | 2074 ft | 162 kts | 34° |
| 2026-05-04 18:38 | 2.77851 | 8.12870 | 2074 ft | 162 kts | 34° |
| 2026-05-04 18:39 | 2.78781 | 8.13503 | 2074 ft | 163 kts | 34° |
| 2026-05-04 18:39 | 2.79722 | 8.14143 | 2074 ft | 163 kts | 34° |
| 2026-05-04 18:39 | 2.80653 | 8.14776 | 2074 ft | 161 kts | 34° |
| 2026-05-04 18:39 | 2.81583 | 8.15409 | 2074 ft | 161 kts | 34° |
| 2026-05-04 18:40 | 2.82517 | 8.16044 | 2074 ft | 162 kts | 34° |
| 2026-05-04 18:40 | 2.83458 | 8.16685 | 2074 ft | 162 kts | 34° |
| 2026-05-04 18:40 | 2.84400 | 8.17327 | 2074 ft | 161 kts | 34° |
| 2026-05-04 18:40 | 2.85314 | 8.17949 | 2073 ft | 159 kts | 34° |
| 2026-05-04 18:41 | 2.86230 | 8.18572 | 2073 ft | 157 kts | 34° |
| 2026-05-04 18:41 | 2.87137 | 8.19190 | 2074 ft | 156 kts | 34° |
| 2026-05-04 18:41 | 2.88045 | 8.19809 | 2074 ft | 156 kts | 34° |
| 2026-05-04 18:41 | 2.88937 | 8.20416 | 2074 ft | 155 kts | 34° |
| 2026-05-04 18:42 | 2.89839 | 8.21031 | 2074 ft | 155 kts | 34° |
| 2026-05-04 18:42 | 2.90637 | 8.21759 | 2072 ft | 154 kts | 48° |
| 2026-05-04 18:42 | 2.91341 | 8.22567 | 2075 ft | 156 kts | 49° |
| 2026-05-04 18:42 | 2.92057 | 8.23399 | 2075 ft | 157 kts | 49° |
| 2026-05-04 18:43 | 2.92781 | 8.24239 | 2075 ft | 158 kts | 49° |
| 2026-05-04 18:43 | 2.93498 | 8.25073 | 2074 ft | 159 kts | 49° |
| 2026-05-04 18:43 | 2.94224 | 8.25917 | 2074 ft | 159 kts | 49° |
| 2026-05-04 18:43 | 2.94942 | 8.26751 | 2074 ft | 159 kts | 49° |
| 2026-05-04 18:44 | 2.95673 | 8.27601 | 2074 ft | 159 kts | 49° |
| 2026-05-04 18:44 | 2.96158 | 8.28166 | 2074 ft | 159 kts | 49° |
| 2026-05-04 18:44 | 2.97120 | 8.29284 | 2074 ft | 159 kts | 49° |
| 2026-05-04 18:44 | 2.97842 | 8.30123 | 2074 ft | 159 kts | 49° |
| 2026-05-04 18:45 | 2.98571 | 8.30972 | 2074 ft | 159 kts | 49° |
| 2026-05-04 18:45 | 2.99293 | 8.31811 | 2074 ft | 159 kts | 49° |
| 2026-05-04 18:45 | 3.00019 | 8.32656 | 2074 ft | 159 kts | 49° |
| 2026-05-04 18:45 | 3.00739 | 8.33493 | 2074 ft | 159 kts | 49° |
| 2026-05-04 18:46 | 3.01464 | 8.34338 | 2074 ft | 159 kts | 49° |
| 2026-05-04 18:46 | 3.02195 | 8.35188 | 2074 ft | 159 kts | 49° |
| 2026-05-04 18:46 | 3.02919 | 8.36031 | 2074 ft | 159 kts | 49° |
| 2026-05-04 18:46 | 3.03639 | 8.36869 | 2074 ft | 159 kts | 49° |
| 2026-05-04 18:47 | 3.04368 | 8.37719 | 2074 ft | 159 kts | 49° |
| 2026-05-04 18:47 | 3.05087 | 8.38554 | 2074 ft | 159 kts | 49° |
| 2026-05-04 18:47 | 3.05814 | 8.39401 | 2074 ft | 159 kts | 49° |
| 2026-05-04 18:47 | 3.06543 | 8.40250 | 2074 ft | 159 kts | 49° |
| 2026-05-04 18:48 | 3.07261 | 8.41086 | 2074 ft | 159 kts | 49° |
| 2026-05-04 18:48 | 3.07986 | 8.41931 | 2074 ft | 159 kts | 49° |
| 2026-05-04 18:48 | 3.08715 | 8.42781 | 2074 ft | 159 kts | 49° |
| 2026-05-04 18:48 | 3.09435 | 8.43620 | 2074 ft | 159 kts | 49° |
| 2026-05-04 18:49 | 3.10154 | 8.44459 | 2074 ft | 159 kts | 49° |
| 2026-05-04 18:49 | 3.10879 | 8.45303 | 2074 ft | 159 kts | 49° |
| 2026-05-04 18:49 | 3.11607 | 8.46153 | 2074 ft | 159 kts | 49° |
| 2026-05-04 18:49 | 3.12334 | 8.47000 | 2074 ft | 159 kts | 49° |
| 2026-05-04 18:50 | 3.13051 | 8.47836 | 2074 ft | 159 kts | 49° |
| 2026-05-04 18:50 | 3.13772 | 8.48677 | 2074 ft | 159 kts | 49° |
| 2026-05-04 18:50 | 3.14496 | 8.49523 | 2074 ft | 159 kts | 49° |
| 2026-05-04 18:50 | 3.15224 | 8.50373 | 2074 ft | 159 kts | 49° |
| 2026-05-04 18:51 | 3.15941 | 8.51209 | 2074 ft | 159 kts | 49° |
| 2026-05-04 18:51 | 3.16671 | 8.52061 | 2074 ft | 159 kts | 49° |
| 2026-05-04 18:51 | 3.17396 | 8.52907 | 2074 ft | 159 kts | 49° |
| 2026-05-04 18:51 | 3.18114 | 8.53747 | 2074 ft | 159 kts | 49° |
| 2026-05-04 18:52 | 3.18834 | 8.54587 | 2074 ft | 159 kts | 49° |
| 2026-05-04 18:52 | 3.19563 | 8.55439 | 2074 ft | 159 kts | 49° |
| 2026-05-04 18:52 | 3.20279 | 8.56274 | 2074 ft | 159 kts | 49° |
| 2026-05-04 18:52 | 3.21004 | 8.57122 | 2074 ft | 159 kts | 49° |
| 2026-05-04 18:53 | 3.21731 | 8.57971 | 2074 ft | 159 kts | 49° |
| 2026-05-04 18:53 | 3.22445 | 8.58806 | 2074 ft | 159 kts | 49° |
| 2026-05-04 18:53 | 3.23030 | 8.59746 | 2062 ft | 159 kts | 74° |
| 2026-05-04 18:53 | 3.23260 | 8.60829 | 2073 ft | 159 kts | 78° |
| 2026-05-04 18:54 | 3.23461 | 8.61903 | 2074 ft | 159 kts | 79° |
| 2026-05-04 18:54 | 3.23664 | 8.63005 | 2074 ft | 159 kts | 79° |
| 2026-05-04 18:54 | 3.23864 | 8.64092 | 2074 ft | 159 kts | 79° |
| 2026-05-04 18:54 | 3.24064 | 8.65179 | 2074 ft | 159 kts | 79° |
| 2026-05-04 18:55 | 3.24264 | 8.66262 | 2074 ft | 159 kts | 79° |
| 2026-05-04 18:55 | 3.24665 | 8.68443 | 2074 ft | 159 kts | 79° |
| 2026-05-04 18:55 | 3.24991 | 8.69500 | 2077 ft | 159 kts | 64° |
| 2026-05-04 18:56 | 3.25493 | 8.70491 | 2074 ft | 159 kts | 57° |
| 2026-05-04 18:56 | 3.26199 | 8.71331 | 2072 ft | 158 kts | 39° |
| 2026-05-04 18:56 | 3.27098 | 8.71963 | 2074 ft | 158 kts | 36° |
| 2026-05-04 18:56 | 3.27999 | 8.72631 | 2074 ft | 159 kts | 36° |
| 2026-05-04 18:57 | 3.28885 | 8.73286 | 2074 ft | 159 kts | 36° |
| 2026-05-04 18:57 | 3.29783 | 8.73951 | 2074 ft | 159 kts | 36° |
| 2026-05-04 18:57 | 3.30670 | 8.74608 | 2074 ft | 159 kts | 36° |
| 2026-05-04 18:57 | 3.31560 | 8.75267 | 2074 ft | 159 kts | 36° |
| 2026-05-04 18:58 | 3.32485 | 8.75891 | 2075 ft | 159 kts | 28° |
| 2026-05-04 18:58 | 3.33499 | 8.76356 | 2075 ft | 159 kts | 23° |
| 2026-05-04 18:58 | 3.34514 | 8.76800 | 2074 ft | 159 kts | 23° |
| 2026-05-04 18:58 | 3.35540 | 8.77247 | 2074 ft | 159 kts | 23° |
| 2026-05-04 18:59 | 3.36553 | 8.77689 | 2074 ft | 159 kts | 23° |
| 2026-05-04 18:59 | 3.37574 | 8.78135 | 2074 ft | 159 kts | 23° |
| 2026-05-04 18:59 | 3.38606 | 8.78585 | 2074 ft | 159 kts | 23° |
| 2026-05-04 18:59 | 3.39625 | 8.79030 | 2074 ft | 159 kts | 23° |
| 2026-05-04 19:00 | 3.40641 | 8.79473 | 2074 ft | 159 kts | 23° |
| 2026-05-04 19:00 | 3.41663 | 8.79920 | 2074 ft | 159 kts | 23° |
| 2026-05-04 19:00 | 3.42690 | 8.80368 | 2074 ft | 159 kts | 23° |
| 2026-05-04 19:00 | 3.43700 | 8.80809 | 2074 ft | 159 kts | 23° |
| 2026-05-04 19:01 | 3.44725 | 8.81257 | 2074 ft | 159 kts | 23° |
| 2026-05-04 19:01 | 3.45752 | 8.81706 | 2074 ft | 159 kts | 23° |
| 2026-05-04 19:01 | 3.47104 | 8.82296 | 2074 ft | 159 kts | 23° |
| 2026-05-04 19:01 | 3.47787 | 8.82595 | 2074 ft | 159 kts | 23° |
| 2026-05-04 19:02 | 3.48808 | 8.83041 | 2074 ft | 159 kts | 23° |
| 2026-05-04 19:02 | 3.49824 | 8.83485 | 2074 ft | 159 kts | 23° |
| 2026-05-04 19:02 | 3.50840 | 8.83929 | 2074 ft | 159 kts | 23° |
| 2026-05-04 19:02 | 3.51864 | 8.84378 | 2074 ft | 159 kts | 23° |
| 2026-05-04 19:03 | 3.52886 | 8.84824 | 2074 ft | 159 kts | 23° |
| 2026-05-04 19:03 | 3.53907 | 8.85271 | 2074 ft | 159 kts | 23° |
| 2026-05-04 19:03 | 3.54926 | 8.85717 | 2074 ft | 159 kts | 23° |
| 2026-05-04 19:03 | 3.55939 | 8.86160 | 2074 ft | 159 kts | 23° |
| 2026-05-04 19:04 | 3.56965 | 8.86609 | 2074 ft | 159 kts | 23° |
| 2026-05-04 19:04 | 3.57978 | 8.87052 | 2073 ft | 159 kts | 23° |
| 2026-05-04 19:04 | 3.59003 | 8.87501 | 2074 ft | 159 kts | 23° |
| 2026-05-04 19:04 | 3.60016 | 8.87944 | 2074 ft | 159 kts | 23° |
| 2026-05-04 19:05 | 3.60935 | 8.88543 | 2061 ft | 159 kts | 50° |
| 2026-05-04 19:05 | 3.61567 | 8.89465 | 2073 ft | 158 kts | 57° |
| 2026-05-04 19:05 | 3.62154 | 8.90385 | 2072 ft | 155 kts | 57° |
| 2026-05-04 19:05 | 3.62804 | 8.91220 | 2074 ft | 151 kts | 42° |
| 2026-05-04 19:06 | 3.63595 | 8.91915 | 2074 ft | 150 kts | 40° |
| 2026-05-04 19:06 | 3.64382 | 8.92592 | 2074 ft | 149 kts | 40° |
| 2026-05-04 19:06 | 3.65165 | 8.93265 | 2074 ft | 148 kts | 40° |
| 2026-05-04 19:06 | 3.66050 | 8.93791 | 2075 ft | 147 kts | 26° |
| 2026-05-04 19:07 | 3.66987 | 8.94248 | 2011 ft | 151 kts | 25° |
| 2026-05-04 19:07 | 3.67940 | 8.94696 | 1886 ft | 151 kts | 20° |
| 2026-05-04 19:07 | 3.68981 | 8.94869 | 1763 ft | 151 kts | 5° |
| 2026-05-04 19:07 | 3.70029 | 8.94778 | 1640 ft | 151 kts | 351° |
| 2026-05-04 19:08 | 3.71080 | 8.94612 | 1515 ft | 152 kts | 350° |
| 2026-05-04 19:08 | 3.72131 | 8.94442 | 1390 ft | 152 kts | 350° |
| 2026-05-04 19:08 | 3.73164 | 8.94257 | 1264 ft | 152 kts | 343° |
| 2026-05-04 19:08 | 3.74038 | 8.93661 | 1139 ft | 151 kts | 314° |
| 2026-05-04 19:09 | 3.74658 | 8.92816 | 1019 ft | 151 kts | 301° |
| 2026-05-04 19:09 | 3.75206 | 8.91911 | 932 ft | 149 kts | 300° |
| 2026-05-04 19:09 | 3.75725 | 8.91043 | 943 ft | 140 kts | 300° |
| 2026-05-04 19:09 | 3.76208 | 8.90234 | 944 ft | 132 kts | 300° |
| 2026-05-04 19:10 | 3.76669 | 8.89463 | 945 ft | 126 kts | 300° |
| 2026-05-04 19:10 | 3.77124 | 8.88703 | 948 ft | 126 kts | 300° |
| 2026-05-04 19:10 | 3.77576 | 8.87951 | 947 ft | 125 kts | 300° |
| 2026-05-04 19:10 | 3.78023 | 8.87206 | 960 ft | 122 kts | 300° |
| 2026-05-04 19:11 | 3.78453 | 8.86491 | 952 ft | 118 kts | 300° |
| 2026-05-04 19:11 | 3.78858 | 8.85817 | 943 ft | 108 kts | 300° |
| 2026-05-04 19:11 | 3.79232 | 8.85196 | 943 ft | 99 kts | 300° |
| 2026-05-04 19:11 | 3.79582 | 8.84618 | 944 ft | 94 kts | 300° |
| 2026-05-04 19:12 | 3.79920 | 8.84062 | 946 ft | 91 kts | 300° |
| 2026-05-04 19:12 | 3.80567 | 8.82998 | 947 ft | 88 kts | 300° |
| 2026-05-04 19:12 | 3.80890 | 8.82469 | 949 ft | 88 kts | 300° |
| 2026-05-04 19:13 | 3.81224 | 8.81923 | 953 ft | 95 kts | 300° |
| 2026-05-04 19:13 | 3.81575 | 8.81348 | 951 ft | 98 kts | 300° |
| 2026-05-04 19:13 | 3.81891 | 8.80739 | 1000 ft | 95 kts | 291° |
| 2026-05-04 19:13 | 3.82161 | 8.80116 | 979 ft | 100 kts | 292° |
| 2026-05-04 19:14 | 3.82256 | 8.79424 | 926 ft | 106 kts | 258° |
| 2026-05-04 19:14 | 3.81904 | 8.78784 | 872 ft | 102 kts | 238° |
| 2026-05-04 19:14 | 3.81617 | 8.78170 | 942 ft | 88 kts | 238° |
| 2026-05-04 19:14 | 3.81304 | 8.77613 | 947 ft | 97 kts | 239° |
| 2026-05-04 19:15 | 3.80953 | 8.76993 | 799 ft | 104 kts | 240° |
| 2026-05-04 19:15 | 3.80602 | 8.76359 | 683 ft | 104 kts | 243° |
| 2026-05-04 19:15 | 3.80210 | 8.75443 | 444 ft | 109 kts | 239° |
| 2026-05-04 19:15 | 3.79897 | 8.75071 | 396 ft | 104 kts | 226° |
| 2026-05-04 19:16 | 3.79443 | 8.74574 | 407 ft | 87 kts | 226° |
| 2026-05-04 19:16 | 3.79064 | 8.74162 | 409 ft | 76 kts | 226° |
| 2026-05-04 19:16 | 3.78694 | 8.73795 | 345 ft | 77 kts | 220° |
| 2026-05-04 19:16 | 3.78295 | 8.73421 | 319 ft | 78 kts | 224° |
| 2026-05-04 19:17 | 3.77925 | 8.73067 | 343 ft | 70 kts | 221° |
| 2026-05-04 19:17 | 3.77569 | 8.72732 | 353 ft | 73 kts | 221° |
| 2026-05-04 19:17 | 3.77160 | 8.72356 | 330 ft | 82 kts | 220° |
| 2026-05-04 19:17 | 3.76750 | 8.71988 | 238 ft | 78 kts | 222° |
| 2026-05-04 19:18 | 3.76361 | 8.71621 | 114 ft | 72 kts | 223° |
| 2026-05-04 19:18 | 3.76037 | 8.71330 | 78 ft | 53 kts | 221° |
| 2026-05-04 19:18 | 3.75805 | 8.71117 | 90 ft | 39 kts | 221° |
| 2026-05-04 19:18 | 3.75623 | 8.71016 | 94 ft | 21 kts | 149° |
| 2026-05-04 19:19 | 3.75534 | 8.71084 | 88 ft | 16 kts | 165° |
| 2026-05-04 19:19 | 3.75423 | 8.71016 | 93 ft | 23 kts | 222° |
| 2026-05-04 19:19 | 3.75276 | 8.70883 | 103 ft | 32 kts | 222° |
| 2026-05-04 19:19 | 3.75098 | 8.70724 | 108 ft | 35 kts | 223° |
| 2026-05-04 19:20 | 3.74960 | 8.70599 | 111 ft | 23 kts | 219° |
| 2026-05-04 19:20 | 3.74846 | 8.70526 | 113 ft | 16 kts | 152° |
| 2026-05-04 19:20 | 3.74841 | 8.70621 | 117 ft | 17 kts | 42° |
| 2026-05-04 19:20 | 3.74910 | 8.70707 | 115 ft | 13 kts | 98° |
| 2026-05-04 19:21 | 3.74873 | 8.70727 | 118 ft | 7 kts | 227° |
| 2026-05-04 19:21 | 3.74866 | 8.70688 | 117 ft | 0 kts | 289° |